sensor_id;sensor_type;location;lat;lon;timestamp;P1;durP1;ratioP1;P2;durP2;ratioP2
483;SDS011;228;48.922;12.198;2023-03-17T00:00:48;4.47;;;3.03;;
483;SDS011;228;48.922;12.198;2023-03-17T00:03:19;7.13;;;3.10;;
483;SDS011;228;48.922;12.198;2023-03-17T00:05:48;3.17;;;2.57;;
483;SDS011;228;48.922;12.198;2023-03-17T00:08:20;3.93;;;2.87;;
483;SDS011;228;48.922;12.198;2023-03-17T00:10:49;4.47;;;2.80;;
483;SDS011;228;48.922;12.198;2023-03-17T00:13:15;4.37;;;2.73;;
483;SDS011;228;48.922;12.198;2023-03-17T00:15:42;4.93;;;3.13;;
483;SDS011;228;48.922;12.198;2023-03-17T00:18:14;4.63;;;2.80;;
483;SDS011;228;48.922;12.198;2023-03-17T00:20:42;4.77;;;2.53;;
483;SDS011;228;48.922;12.198;2023-03-17T00:23:12;5.93;;;3.07;;
483;SDS011;228;48.922;12.198;2023-03-17T00:25:42;5.47;;;2.40;;
483;SDS011;228;48.922;12.198;2023-03-17T00:28:15;4.03;;;2.70;;
483;SDS011;228;48.922;12.198;2023-03-17T00:30:47;4.87;;;2.60;;
483;SDS011;228;48.922;12.198;2023-03-17T00:33:14;3.50;;;2.43;;
483;SDS011;228;48.922;12.198;2023-03-17T00:35:41;4.13;;;2.30;;
483;SDS011;228;48.922;12.198;2023-03-17T00:38:15;3.93;;;2.00;;
483;SDS011;228;48.922;12.198;2023-03-17T00:40:42;2.57;;;2.00;;
483;SDS011;228;48.922;12.198;2023-03-17T00:43:10;2.60;;;1.90;;
483;SDS011;228;48.922;12.198;2023-03-17T00:45:37;3.73;;;2.40;;
483;SDS011;228;48.922;12.198;2023-03-17T00:48:11;2.97;;;1.97;;
483;SDS011;228;48.922;12.198;2023-03-17T00:50:43;7.80;;;1.93;;
483;SDS011;228;48.922;12.198;2023-03-17T00:53:14;3.13;;;2.13;;
483;SDS011;228;48.922;12.198;2023-03-17T00:55:43;3.53;;;2.20;;
483;SDS011;228;48.922;12.198;2023-03-17T00:58:14;6.20;;;2.40;;
483;SDS011;228;48.922;12.198;2023-03-17T01:00:42;3.93;;;1.93;;
483;SDS011;228;48.922;12.198;2023-03-17T01:03:10;3.50;;;2.10;;
483;SDS011;228;48.922;12.198;2023-03-17T01:05:37;3.33;;;1.80;;
483;SDS011;228;48.922;12.198;2023-03-17T01:08:06;2.90;;;2.03;;
483;SDS011;228;48.922;12.198;2023-03-17T01:10:33;3.77;;;2.40;;
483;SDS011;228;48.922;12.198;2023-03-17T01:13:00;3.87;;;2.50;;
483;SDS011;228;48.922;12.198;2023-03-17T01:15:28;2.77;;;2.33;;
483;SDS011;228;48.922;12.198;2023-03-17T01:17:56;2.73;;;1.83;;
483;SDS011;228;48.922;12.198;2023-03-17T01:20:24;3.33;;;2.50;;
483;SDS011;228;48.922;12.198;2023-03-17T01:22:52;2.40;;;1.90;;
483;SDS011;228;48.922;12.198;2023-03-17T01:25:18;3.57;;;2.40;;
483;SDS011;228;48.922;12.198;2023-03-17T01:27:45;2.67;;;2.00;;
483;SDS011;228;48.922;12.198;2023-03-17T01:30:30;3.63;;;2.00;;
483;SDS011;228;48.922;12.198;2023-03-17T01:33:04;2.87;;;2.07;;
483;SDS011;228;48.922;12.198;2023-03-17T01:35:32;3.13;;;2.27;;
483;SDS011;228;48.922;12.198;2023-03-17T01:37:59;2.23;;;1.90;;
483;SDS011;228;48.922;12.198;2023-03-17T01:40:27;3.00;;;2.20;;
483;SDS011;228;48.922;12.198;2023-03-17T01:43:02;2.67;;;2.10;;
483;SDS011;228;48.922;12.198;2023-03-17T01:54:09;2.77;;;2.10;;
483;SDS011;228;48.922;12.198;2023-03-17T01:56:40;2.17;;;1.97;;
483;SDS011;228;48.922;12.198;2023-03-17T01:59:10;2.30;;;2.00;;
483;SDS011;228;48.922;12.198;2023-03-17T02:01:42;2.97;;;1.90;;
483;SDS011;228;48.922;12.198;2023-03-17T02:04:11;4.87;;;2.07;;
483;SDS011;228;48.922;12.198;2023-03-17T02:06:38;3.20;;;2.40;;
483;SDS011;228;48.922;12.198;2023-03-17T02:09:07;4.73;;;1.80;;
483;SDS011;228;48.922;12.198;2023-03-17T02:11:34;2.73;;;1.87;;
483;SDS011;228;48.922;12.198;2023-03-17T02:14:00;2.87;;;1.80;;
483;SDS011;228;48.922;12.198;2023-03-17T02:16:26;2.17;;;1.87;;
483;SDS011;228;48.922;12.198;2023-03-17T02:18:55;3.37;;;2.23;;
483;SDS011;228;48.922;12.198;2023-03-17T02:23:52;1.93;;;1.47;;
483;SDS011;228;48.922;12.198;2023-03-17T02:26:19;4.20;;;2.40;;
483;SDS011;228;48.922;12.198;2023-03-17T02:28:47;3.10;;;1.97;;
483;SDS011;228;48.922;12.198;2023-03-17T02:31:13;4.80;;;2.53;;
483;SDS011;228;48.922;12.198;2023-03-17T02:33:39;2.70;;;2.13;;
483;SDS011;228;48.922;12.198;2023-03-17T02:36:08;3.27;;;2.27;;
483;SDS011;228;48.922;12.198;2023-03-17T02:38:35;2.97;;;2.27;;
483;SDS011;228;48.922;12.198;2023-03-17T02:41:01;2.50;;;2.13;;
483;SDS011;228;48.922;12.198;2023-03-17T02:43:27;2.60;;;2.20;;
483;SDS011;228;48.922;12.198;2023-03-17T02:45:54;3.00;;;2.10;;
483;SDS011;228;48.922;12.198;2023-03-17T02:48:20;2.47;;;1.90;;
483;SDS011;228;48.922;12.198;2023-03-17T02:50:47;3.53;;;2.27;;
483;SDS011;228;48.922;12.198;2023-03-17T02:53:13;3.03;;;2.13;;
483;SDS011;228;48.922;12.198;2023-03-17T02:55:39;2.03;;;1.70;;
483;SDS011;228;48.922;12.198;2023-03-17T02:58:06;3.33;;;2.00;;
483;SDS011;228;48.922;12.198;2023-03-17T03:00:32;4.63;;;2.20;;
483;SDS011;228;48.922;12.198;2023-03-17T03:02:59;2.63;;;1.97;;
483;SDS011;228;48.922;12.198;2023-03-17T03:05:25;4.13;;;2.20;;
483;SDS011;228;48.922;12.198;2023-03-17T03:07:51;4.27;;;2.40;;
483;SDS011;228;48.922;12.198;2023-03-17T03:10:17;3.90;;;2.33;;
483;SDS011;228;48.922;12.198;2023-03-17T03:12:43;3.43;;;2.10;;
483;SDS011;228;48.922;12.198;2023-03-17T03:15:09;2.93;;;2.20;;
483;SDS011;228;48.922;12.198;2023-03-17T03:17:35;4.53;;;2.70;;
483;SDS011;228;48.922;12.198;2023-03-17T03:20:02;4.47;;;2.10;;
483;SDS011;228;48.922;12.198;2023-03-17T03:22:29;3.23;;;2.07;;
483;SDS011;228;48.922;12.198;2023-03-17T03:24:55;2.17;;;1.70;;
483;SDS011;228;48.922;12.198;2023-03-17T03:27:20;3.83;;;2.30;;
483;SDS011;228;48.922;12.198;2023-03-17T03:29:46;3.30;;;2.13;;
483;SDS011;228;48.922;12.198;2023-03-17T03:32:13;2.53;;;1.70;;
483;SDS011;228;48.922;12.198;2023-03-17T03:34:39;2.20;;;1.70;;
483;SDS011;228;48.922;12.198;2023-03-17T03:37:05;2.83;;;1.90;;
483;SDS011;228;48.922;12.198;2023-03-17T03:39:32;3.60;;;2.00;;
483;SDS011;228;48.922;12.198;2023-03-17T03:41:58;2.17;;;1.97;;
483;SDS011;228;48.922;12.198;2023-03-17T03:44:24;3.93;;;2.20;;
483;SDS011;228;48.922;12.198;2023-03-17T03:46:50;2.00;;;1.80;;
483;SDS011;228;48.922;12.198;2023-03-17T03:49:16;5.03;;;2.60;;
483;SDS011;228;48.922;12.198;2023-03-17T03:51:41;6.37;;;2.67;;
483;SDS011;228;48.922;12.198;2023-03-17T03:54:07;6.23;;;2.20;;
483;SDS011;228;48.922;12.198;2023-03-17T03:56:33;4.70;;;1.83;;
483;SDS011;228;48.922;12.198;2023-03-17T03:58:59;4.20;;;2.30;;
483;SDS011;228;48.922;12.198;2023-03-17T04:01:25;1.97;;;1.73;;
483;SDS011;228;48.922;12.198;2023-03-17T04:03:51;3.40;;;2.30;;
483;SDS011;228;48.922;12.198;2023-03-17T04:06:17;2.70;;;2.40;;
483;SDS011;228;48.922;12.198;2023-03-17T04:08:43;3.23;;;1.80;;
483;SDS011;228;48.922;12.198;2023-03-17T04:11:10;3.00;;;2.00;;
483;SDS011;228;48.922;12.198;2023-03-17T04:13:35;4.50;;;2.20;;
483;SDS011;228;48.922;12.198;2023-03-17T04:16:02;10.90;;;2.40;;
483;SDS011;228;48.922;12.198;2023-03-17T04:18:28;2.53;;;1.97;;
483;SDS011;228;48.922;12.198;2023-03-17T04:20:55;2.33;;;2.07;;
483;SDS011;228;48.922;12.198;2023-03-17T04:23:22;2.07;;;1.87;;
483;SDS011;228;48.922;12.198;2023-03-17T04:25:51;4.07;;;1.70;;
483;SDS011;228;48.922;12.198;2023-03-17T04:28:17;2.93;;;1.90;;
483;SDS011;228;48.922;12.198;2023-03-17T04:30:46;4.20;;;2.40;;
483;SDS011;228;48.922;12.198;2023-03-17T04:33:12;2.70;;;2.20;;
483;SDS011;228;48.922;12.198;2023-03-17T04:35:38;4.80;;;2.20;;
483;SDS011;228;48.922;12.198;2023-03-17T04:38:04;2.97;;;2.07;;
483;SDS011;228;48.922;12.198;2023-03-17T04:40:30;5.27;;;2.40;;
483;SDS011;228;48.922;12.198;2023-03-17T04:42:56;2.70;;;2.07;;
483;SDS011;228;48.922;12.198;2023-03-17T04:45:21;3.03;;;1.93;;
483;SDS011;228;48.922;12.198;2023-03-17T04:47:47;4.70;;;2.13;;
483;SDS011;228;48.922;12.198;2023-03-17T04:50:13;3.33;;;2.40;;
483;SDS011;228;48.922;12.198;2023-03-17T04:52:40;4.57;;;2.57;;
483;SDS011;228;48.922;12.198;2023-03-17T04:55:06;3.40;;;2.20;;
483;SDS011;228;48.922;12.198;2023-03-17T04:57:32;2.63;;;1.90;;
483;SDS011;228;48.922;12.198;2023-03-17T04:59:59;4.53;;;2.43;;
483;SDS011;228;48.922;12.198;2023-03-17T05:02:25;3.23;;;2.10;;
483;SDS011;228;48.922;12.198;2023-03-17T05:04:51;2.20;;;1.90;;
483;SDS011;228;48.922;12.198;2023-03-17T05:07:17;2.97;;;2.20;;
483;SDS011;228;48.922;12.198;2023-03-17T05:09:43;4.40;;;2.63;;
483;SDS011;228;48.922;12.198;2023-03-17T05:12:09;6.07;;;3.17;;
483;SDS011;228;48.922;12.198;2023-03-17T05:14:36;6.33;;;3.07;;
483;SDS011;228;48.922;12.198;2023-03-17T05:17:02;3.90;;;2.60;;
483;SDS011;228;48.922;12.198;2023-03-17T05:19:28;4.40;;;2.50;;
483;SDS011;228;48.922;12.198;2023-03-17T05:21:53;3.47;;;2.73;;
483;SDS011;228;48.922;12.198;2023-03-17T05:24:20;4.27;;;2.40;;
483;SDS011;228;48.922;12.198;2023-03-17T05:26:46;2.40;;;2.13;;
483;SDS011;228;48.922;12.198;2023-03-17T05:29:12;2.80;;;2.10;;
483;SDS011;228;48.922;12.198;2023-03-17T05:31:38;2.07;;;1.87;;
483;SDS011;228;48.922;12.198;2023-03-17T05:34:04;2.87;;;2.30;;
483;SDS011;228;48.922;12.198;2023-03-17T05:36:30;3.40;;;2.20;;
483;SDS011;228;48.922;12.198;2023-03-17T05:38:57;5.07;;;2.87;;
483;SDS011;228;48.922;12.198;2023-03-17T05:41:23;8.77;;;4.40;;
483;SDS011;228;48.922;12.198;2023-03-17T05:43:49;8.43;;;4.30;;
483;SDS011;228;48.922;12.198;2023-03-17T05:46:16;7.77;;;5.33;;
483;SDS011;228;48.922;12.198;2023-03-17T05:48:42;10.67;;;5.50;;
483;SDS011;228;48.922;12.198;2023-03-17T05:51:07;7.70;;;4.23;;
483;SDS011;228;48.922;12.198;2023-03-17T05:53:33;6.93;;;3.60;;
483;SDS011;228;48.922;12.198;2023-03-17T05:56:00;8.33;;;4.10;;
483;SDS011;228;48.922;12.198;2023-03-17T05:58:27;6.33;;;4.20;;
483;SDS011;228;48.922;12.198;2023-03-17T06:00:53;7.00;;;4.03;;
483;SDS011;228;48.922;12.198;2023-03-17T06:03:20;3.60;;;2.80;;
483;SDS011;228;48.922;12.198;2023-03-17T06:05:46;3.87;;;2.80;;
483;SDS011;228;48.922;12.198;2023-03-17T06:08:12;3.93;;;2.43;;
483;SDS011;228;48.922;12.198;2023-03-17T06:10:39;6.67;;;2.60;;
483;SDS011;228;48.922;12.198;2023-03-17T06:13:05;4.00;;;2.33;;
483;SDS011;228;48.922;12.198;2023-03-17T06:15:31;6.10;;;2.97;;
483;SDS011;228;48.922;12.198;2023-03-17T06:17:57;6.10;;;3.23;;
483;SDS011;228;48.922;12.198;2023-03-17T06:20:23;4.33;;;2.83;;
483;SDS011;228;48.922;12.198;2023-03-17T06:22:49;7.43;;;3.27;;
483;SDS011;228;48.922;12.198;2023-03-17T06:25:15;6.10;;;3.00;;
483;SDS011;228;48.922;12.198;2023-03-17T06:27:41;6.40;;;2.93;;
483;SDS011;228;48.922;12.198;2023-03-17T06:30:08;5.07;;;3.40;;
483;SDS011;228;48.922;12.198;2023-03-17T06:32:35;7.00;;;3.80;;
483;SDS011;228;48.922;12.198;2023-03-17T06:35:02;5.97;;;2.90;;
483;SDS011;228;48.922;12.198;2023-03-17T06:37:29;5.57;;;4.10;;
483;SDS011;228;48.922;12.198;2023-03-17T06:39:55;6.90;;;3.87;;
483;SDS011;228;48.922;12.198;2023-03-17T06:42:22;7.30;;;3.63;;
483;SDS011;228;48.922;12.198;2023-03-17T06:44:48;5.53;;;3.20;;
483;SDS011;228;48.922;12.198;2023-03-17T06:47:17;5.57;;;3.17;;
483;SDS011;228;48.922;12.198;2023-03-17T06:49:44;7.27;;;3.63;;
483;SDS011;228;48.922;12.198;2023-03-17T06:52:11;5.40;;;3.70;;
483;SDS011;228;48.922;12.198;2023-03-17T06:54:37;5.67;;;3.77;;
483;SDS011;228;48.922;12.198;2023-03-17T06:57:03;6.30;;;3.50;;
483;SDS011;228;48.922;12.198;2023-03-17T06:59:29;4.77;;;3.10;;
483;SDS011;228;48.922;12.198;2023-03-17T07:01:55;5.07;;;3.10;;
483;SDS011;228;48.922;12.198;2023-03-17T07:04:22;4.37;;;3.13;;
483;SDS011;228;48.922;12.198;2023-03-17T07:06:47;4.83;;;3.40;;
483;SDS011;228;48.922;12.198;2023-03-17T07:09:14;8.17;;;4.00;;
483;SDS011;228;48.922;12.198;2023-03-17T07:11:41;4.40;;;3.10;;
483;SDS011;228;48.922;12.198;2023-03-17T07:14:07;5.20;;;3.00;;
483;SDS011;228;48.922;12.198;2023-03-17T07:16:33;3.17;;;2.37;;
483;SDS011;228;48.922;12.198;2023-03-17T07:18:59;4.03;;;2.67;;
483;SDS011;228;48.922;12.198;2023-03-17T07:21:25;4.43;;;2.67;;
483;SDS011;228;48.922;12.198;2023-03-17T07:23:51;4.33;;;2.37;;
483;SDS011;228;48.922;12.198;2023-03-17T07:26:17;5.17;;;2.60;;
483;SDS011;228;48.922;12.198;2023-03-17T07:28:43;7.27;;;3.03;;
483;SDS011;228;48.922;12.198;2023-03-17T07:31:09;3.13;;;2.47;;
483;SDS011;228;48.922;12.198;2023-03-17T07:33:38;4.63;;;2.60;;
483;SDS011;228;48.922;12.198;2023-03-17T07:36:05;3.20;;;2.43;;
483;SDS011;228;48.922;12.198;2023-03-17T07:38:33;3.40;;;2.43;;
483;SDS011;228;48.922;12.198;2023-03-17T07:40:59;3.93;;;2.47;;
483;SDS011;228;48.922;12.198;2023-03-17T07:43:25;4.20;;;3.13;;
483;SDS011;228;48.922;12.198;2023-03-17T07:45:51;3.97;;;2.50;;
483;SDS011;228;48.922;12.198;2023-03-17T07:48:17;4.37;;;2.50;;
483;SDS011;228;48.922;12.198;2023-03-17T07:50:43;3.40;;;2.57;;
483;SDS011;228;48.922;12.198;2023-03-17T07:53:09;3.57;;;3.00;;
483;SDS011;228;48.922;12.198;2023-03-17T07:55:35;4.70;;;2.93;;
483;SDS011;228;48.922;12.198;2023-03-17T07:58:03;3.40;;;2.60;;
483;SDS011;228;48.922;12.198;2023-03-17T08:00:29;3.37;;;2.73;;
483;SDS011;228;48.922;12.198;2023-03-17T08:02:56;6.50;;;2.47;;
483;SDS011;228;48.922;12.198;2023-03-17T08:05:21;4.43;;;2.40;;
483;SDS011;228;48.922;12.198;2023-03-17T08:07:49;2.70;;;2.17;;
483;SDS011;228;48.922;12.198;2023-03-17T08:10:15;2.80;;;2.13;;
483;SDS011;228;48.922;12.198;2023-03-17T08:12:42;2.83;;;2.47;;
483;SDS011;228;48.922;12.198;2023-03-17T08:15:09;2.83;;;2.27;;
483;SDS011;228;48.922;12.198;2023-03-17T08:17:35;3.47;;;2.20;;
483;SDS011;228;48.922;12.198;2023-03-17T08:20:02;3.53;;;2.57;;
483;SDS011;228;48.922;12.198;2023-03-17T08:22:29;3.47;;;2.40;;
483;SDS011;228;48.922;12.198;2023-03-17T08:24:55;2.40;;;2.20;;
483;SDS011;228;48.922;12.198;2023-03-17T08:27:22;3.93;;;2.50;;
483;SDS011;228;48.922;12.198;2023-03-17T08:29:48;2.43;;;2.00;;
483;SDS011;228;48.922;12.198;2023-03-17T08:32:15;3.77;;;2.40;;
483;SDS011;228;48.922;12.198;2023-03-17T08:34:41;5.00;;;2.87;;
483;SDS011;228;48.922;12.198;2023-03-17T08:37:08;3.50;;;1.93;;
483;SDS011;228;48.922;12.198;2023-03-17T08:39:34;2.67;;;2.03;;
483;SDS011;228;48.922;12.198;2023-03-17T08:42:02;3.50;;;2.27;;
483;SDS011;228;48.922;12.198;2023-03-17T08:44:29;3.10;;;2.33;;
483;SDS011;228;48.922;12.198;2023-03-17T08:46:54;3.87;;;2.43;;
483;SDS011;228;48.922;12.198;2023-03-17T08:49:21;3.80;;;2.70;;
483;SDS011;228;48.922;12.198;2023-03-17T08:51:47;3.20;;;2.50;;
483;SDS011;228;48.922;12.198;2023-03-17T08:54:13;3.27;;;2.87;;
483;SDS011;228;48.922;12.198;2023-03-17T08:56:40;2.93;;;2.40;;
483;SDS011;228;48.922;12.198;2023-03-17T08:59:07;2.80;;;2.17;;
483;SDS011;228;48.922;12.198;2023-03-17T09:01:33;2.20;;;2.00;;
483;SDS011;228;48.922;12.198;2023-03-17T09:04:00;3.30;;;2.40;;
483;SDS011;228;48.922;12.198;2023-03-17T09:06:27;3.80;;;2.50;;
483;SDS011;228;48.922;12.198;2023-03-17T09:08:53;4.47;;;2.53;;
483;SDS011;228;48.922;12.198;2023-03-17T09:11:20;2.50;;;2.30;;
483;SDS011;228;48.922;12.198;2023-03-17T09:13:48;2.73;;;2.30;;
483;SDS011;228;48.922;12.198;2023-03-17T09:16:15;3.00;;;2.17;;
483;SDS011;228;48.922;12.198;2023-03-17T09:18:42;2.30;;;2.10;;
483;SDS011;228;48.922;12.198;2023-03-17T09:21:09;3.87;;;2.47;;
483;SDS011;228;48.922;12.198;2023-03-17T09:23:37;3.67;;;1.83;;
483;SDS011;228;48.922;12.198;2023-03-17T09:26:03;2.70;;;1.83;;
483;SDS011;228;48.922;12.198;2023-03-17T09:28:29;2.67;;;2.00;;
483;SDS011;228;48.922;12.198;2023-03-17T09:30:59;2.83;;;2.10;;
483;SDS011;228;48.922;12.198;2023-03-17T09:33:26;3.17;;;2.13;;
483;SDS011;228;48.922;12.198;2023-03-17T09:35:53;3.17;;;2.10;;
483;SDS011;228;48.922;12.198;2023-03-17T09:38:21;3.50;;;2.07;;
483;SDS011;228;48.922;12.198;2023-03-17T09:46:34;2.27;;;2.00;;
483;SDS011;228;48.922;12.198;2023-03-17T09:49:02;2.80;;;1.57;;
483;SDS011;228;48.922;12.198;2023-03-17T09:51:32;2.33;;;1.80;;
483;SDS011;228;48.922;12.198;2023-03-17T09:54:17;2.67;;;1.93;;
483;SDS011;228;48.922;12.198;2023-03-17T09:57:26;2.07;;;1.77;;
483;SDS011;228;48.922;12.198;2023-03-17T10:00:09;1.60;;;1.47;;
483;SDS011;228;48.922;12.198;2023-03-17T10:02:39;1.97;;;1.80;;
483;SDS011;228;48.922;12.198;2023-03-17T10:05:09;2.77;;;2.00;;
483;SDS011;228;48.922;12.198;2023-03-17T10:07:46;2.30;;;1.90;;
483;SDS011;228;48.922;12.198;2023-03-17T10:10:26;2.10;;;1.80;;
483;SDS011;228;48.922;12.198;2023-03-17T10:13:18;2.20;;;1.87;;
483;SDS011;228;48.922;12.198;2023-03-17T10:15:59;2.20;;;1.77;;
483;SDS011;228;48.922;12.198;2023-03-17T10:18:44;2.00;;;1.80;;
483;SDS011;228;48.922;12.198;2023-03-17T10:21:12;4.83;;;2.50;;
483;SDS011;228;48.922;12.198;2023-03-17T10:23:42;2.90;;;2.57;;
483;SDS011;228;48.922;12.198;2023-03-17T10:27:10;3.67;;;1.80;;
483;SDS011;228;48.922;12.198;2023-03-17T10:29:15;2.10;;;1.90;;
483;SDS011;228;48.922;12.198;2023-03-17T10:31:43;1.80;;;1.70;;
483;SDS011;228;48.922;12.198;2023-03-17T10:34:13;4.47;;;2.00;;
483;SDS011;228;48.922;12.198;2023-03-17T10:36:49;2.47;;;1.93;;
483;SDS011;228;48.922;12.198;2023-03-17T10:39:22;3.10;;;1.93;;
483;SDS011;228;48.922;12.198;2023-03-17T10:41:56;2.40;;;2.10;;
483;SDS011;228;48.922;12.198;2023-03-17T10:44:32;2.30;;;1.90;;
483;SDS011;228;48.922;12.198;2023-03-17T10:49:47;2.57;;;1.80;;
483;SDS011;228;48.922;12.198;2023-03-17T10:52:29;3.63;;;2.23;;
483;SDS011;228;48.922;12.198;2023-03-17T10:55:04;4.23;;;2.20;;
483;SDS011;228;48.922;12.198;2023-03-17T10:57:31;2.53;;;2.03;;
483;SDS011;228;48.922;12.198;2023-03-17T11:00:02;2.77;;;2.50;;
483;SDS011;228;48.922;12.198;2023-03-17T11:02:56;3.20;;;2.00;;
483;SDS011;228;48.922;12.198;2023-03-17T11:05:27;2.67;;;2.00;;
483;SDS011;228;48.922;12.198;2023-03-17T11:08:04;2.20;;;1.90;;
483;SDS011;228;48.922;12.198;2023-03-17T11:10:38;2.80;;;2.20;;
483;SDS011;228;48.922;12.198;2023-03-17T11:13:05;3.53;;;2.70;;
483;SDS011;228;48.922;12.198;2023-03-17T11:15:33;2.87;;;2.40;;
483;SDS011;228;48.922;12.198;2023-03-17T11:18:11;3.30;;;2.40;;
483;SDS011;228;48.922;12.198;2023-03-17T11:28:39;3.33;;;2.33;;
483;SDS011;228;48.922;12.198;2023-03-17T11:31:30;5.47;;;3.03;;
483;SDS011;228;48.922;12.198;2023-03-17T11:34:07;3.50;;;2.60;;
483;SDS011;228;48.922;12.198;2023-03-17T11:36:58;5.70;;;2.87;;
483;SDS011;228;48.922;12.198;2023-03-17T11:39:42;5.13;;;2.83;;
483;SDS011;228;48.922;12.198;2023-03-17T11:45:37;3.35;;;2.72;;
483;SDS011;228;48.922;12.198;2023-03-17T11:50:40;2.97;;;2.47;;
483;SDS011;228;48.922;12.198;2023-03-17T11:55:55;3.30;;;2.97;;
483;SDS011;228;48.922;12.198;2023-03-17T11:58:29;4.85;;;3.65;;
483;SDS011;228;48.922;12.198;2023-03-17T12:01:00;4.80;;;3.25;;
483;SDS011;228;48.922;12.198;2023-03-17T12:09:10;3.35;;;2.72;;
483;SDS011;228;48.922;12.198;2023-03-17T12:12:03;3.97;;;3.03;;
483;SDS011;228;48.922;12.198;2023-03-17T12:14:33;3.30;;;2.95;;
483;SDS011;228;48.922;12.198;2023-03-17T12:17:13;3.28;;;2.88;;
483;SDS011;228;48.922;12.198;2023-03-17T12:24:49;4.65;;;2.45;;
483;SDS011;228;48.922;12.198;2023-03-17T12:27:30;4.45;;;3.00;;
483;SDS011;228;48.922;12.198;2023-03-17T12:30:06;5.35;;;2.90;;
483;SDS011;228;48.922;12.198;2023-03-17T12:32:46;5.38;;;2.83;;
483;SDS011;228;48.922;12.198;2023-03-17T12:35:21;3.78;;;3.42;;
483;SDS011;228;48.922;12.198;2023-03-17T12:37:52;4.68;;;2.97;;
483;SDS011;228;48.922;12.198;2023-03-17T12:40:21;3.92;;;3.30;;
483;SDS011;228;48.922;12.198;2023-03-17T12:49:15;3.47;;;3.17;;
483;SDS011;228;48.922;12.198;2023-03-17T12:54:32;3.92;;;3.20;;
483;SDS011;228;48.922;12.198;2023-03-17T12:57:02;3.67;;;2.85;;
483;SDS011;228;48.922;12.198;2023-03-17T12:59:56;3.30;;;3.00;;
483;SDS011;228;48.922;12.198;2023-03-17T13:02:31;3.10;;;2.80;;
483;SDS011;228;48.922;12.198;2023-03-17T13:05:04;3.00;;;2.70;;
483;SDS011;228;48.922;12.198;2023-03-17T13:17:50;4.82;;;3.40;;
483;SDS011;228;48.922;12.198;2023-03-17T13:20:36;3.80;;;3.17;;
483;SDS011;228;48.922;12.198;2023-03-17T13:43:37;4.82;;;2.90;;
483;SDS011;228;48.922;12.198;2023-03-17T13:48:47;3.47;;;3.00;;
483;SDS011;228;48.922;12.198;2023-03-17T13:51:18;3.40;;;2.90;;
483;SDS011;228;48.922;12.198;2023-03-17T13:53:48;3.40;;;3.10;;
483;SDS011;228;48.922;12.198;2023-03-17T13:56:25;3.63;;;2.63;;
483;SDS011;228;48.922;12.198;2023-03-17T13:59:12;3.00;;;2.70;;
483;SDS011;228;48.922;12.198;2023-03-17T14:04:21;3.65;;;3.10;;
483;SDS011;228;48.922;12.198;2023-03-17T14:06:54;3.28;;;2.97;;
483;SDS011;228;48.922;12.198;2023-03-17T14:09:26;3.60;;;2.95;;
483;SDS011;228;48.922;12.198;2023-03-17T14:12:51;3.58;;;2.47;;
483;SDS011;228;48.922;12.198;2023-03-17T14:15:07;3.92;;;2.92;;
483;SDS011;228;48.922;12.198;2023-03-17T14:17:44;2.78;;;2.53;;
483;SDS011;228;48.922;12.198;2023-03-17T14:22:44;3.45;;;3.10;;
483;SDS011;228;48.922;12.198;2023-03-17T14:25:16;2.95;;;2.60;;
483;SDS011;228;48.922;12.198;2023-03-17T14:27:50;4.22;;;2.80;;
483;SDS011;228;48.922;12.198;2023-03-17T14:30:22;2.83;;;2.40;;
483;SDS011;228;48.922;12.198;2023-03-17T14:33:06;2.45;;;2.05;;
483;SDS011;228;48.922;12.198;2023-03-17T14:35:48;3.85;;;3.28;;
483;SDS011;228;48.922;12.198;2023-03-17T14:40:46;2.20;;;2.00;;
483;SDS011;228;48.922;12.198;2023-03-17T14:43:13;4.63;;;2.80;;
483;SDS011;228;48.922;12.198;2023-03-17T14:48:35;3.25;;;2.55;;
483;SDS011;228;48.922;12.198;2023-03-17T14:51:13;2.20;;;2.00;;
483;SDS011;228;48.922;12.198;2023-03-17T14:54:02;3.17;;;2.25;;
483;SDS011;228;48.922;12.198;2023-03-17T14:56:31;4.97;;;3.47;;
483;SDS011;228;48.922;12.198;2023-03-17T14:59:05;3.58;;;2.38;;
483;SDS011;228;48.922;12.198;2023-03-17T15:01:53;3.22;;;2.10;;
483;SDS011;228;48.922;12.198;2023-03-17T15:04:23;2.38;;;1.80;;
483;SDS011;228;48.922;12.198;2023-03-17T15:06:55;1.88;;;1.70;;
483;SDS011;228;48.922;12.198;2023-03-17T15:09:27;5.70;;;4.25;;
483;SDS011;228;48.922;12.198;2023-03-17T15:11:55;3.08;;;1.98;;
483;SDS011;228;48.922;12.198;2023-03-17T15:14:38;1.67;;;1.55;;
483;SDS011;228;48.922;12.198;2023-03-17T15:17:18;2.47;;;1.70;;
483;SDS011;228;48.922;12.198;2023-03-17T15:19:52;2.85;;;1.60;;
483;SDS011;228;48.922;12.198;2023-03-17T15:24:51;2.08;;;1.83;;
483;SDS011;228;48.922;12.198;2023-03-17T15:27:23;2.20;;;2.00;;
483;SDS011;228;48.922;12.198;2023-03-17T15:29:49;2.05;;;1.85;;
483;SDS011;228;48.922;12.198;2023-03-17T15:32:16;2.05;;;1.85;;
483;SDS011;228;48.922;12.198;2023-03-17T15:34:48;1.83;;;1.65;;
483;SDS011;228;48.922;12.198;2023-03-17T15:37:17;2.40;;;1.80;;
483;SDS011;228;48.922;12.198;2023-03-17T15:39:46;2.20;;;2.00;;
483;SDS011;228;48.922;12.198;2023-03-17T15:42:13;3.38;;;2.33;;
483;SDS011;228;48.922;12.198;2023-03-17T15:44:40;2.80;;;2.22;;
483;SDS011;228;48.922;12.198;2023-03-17T15:47:06;2.03;;;1.83;;
483;SDS011;228;48.922;12.198;2023-03-17T15:49:37;2.33;;;1.77;;
483;SDS011;228;48.922;12.198;2023-03-17T15:52:05;1.92;;;1.83;;
483;SDS011;228;48.922;12.198;2023-03-17T15:54:55;1.70;;;1.60;;
483;SDS011;228;48.922;12.198;2023-03-17T15:57:23;2.00;;;1.80;;
483;SDS011;228;48.922;12.198;2023-03-17T15:59:50;3.50;;;2.20;;
483;SDS011;228;48.922;12.198;2023-03-17T16:04:51;2.40;;;2.15;;
483;SDS011;228;48.922;12.198;2023-03-17T16:07:18;3.42;;;2.53;;
483;SDS011;228;48.922;12.198;2023-03-17T16:09:45;3.13;;;2.53;;
483;SDS011;228;48.922;12.198;2023-03-17T16:12:12;2.40;;;2.03;;
483;SDS011;228;48.922;12.198;2023-03-17T16:14:38;1.95;;;1.65;;
483;SDS011;228;48.922;12.198;2023-03-17T16:17:25;2.35;;;1.88;;
483;SDS011;228;48.922;12.198;2023-03-17T16:19:54;1.90;;;1.65;;
483;SDS011;228;48.922;12.198;2023-03-17T16:25:02;2.60;;;2.10;;
483;SDS011;228;48.922;12.198;2023-03-17T16:27:28;1.80;;;1.70;;
483;SDS011;228;48.922;12.198;2023-03-17T16:29:54;1.98;;;1.88;;
483;SDS011;228;48.922;12.198;2023-03-17T16:32:20;2.55;;;1.85;;
483;SDS011;228;48.922;12.198;2023-03-17T16:34:46;2.10;;;2.00;;
483;SDS011;228;48.922;12.198;2023-03-17T16:37:13;2.20;;;2.00;;
483;SDS011;228;48.922;12.198;2023-03-17T16:39:40;2.33;;;1.80;;
483;SDS011;228;48.922;12.198;2023-03-17T16:42:21;3.17;;;2.58;;
483;SDS011;228;48.922;12.198;2023-03-17T16:44:48;3.22;;;2.65;;
483;SDS011;228;48.922;12.198;2023-03-17T16:47:15;3.20;;;2.90;;
483;SDS011;228;48.922;12.198;2023-03-17T16:49:41;2.92;;;2.63;;
483;SDS011;228;48.922;12.198;2023-03-17T16:52:07;5.05;;;2.75;;
483;SDS011;228;48.922;12.198;2023-03-17T16:54:33;4.57;;;3.60;;
483;SDS011;228;48.922;12.198;2023-03-17T16:56:59;3.73;;;3.20;;
483;SDS011;228;48.922;12.198;2023-03-17T16:59:25;4.03;;;3.20;;
483;SDS011;228;48.922;12.198;2023-03-17T17:01:59;5.03;;;3.80;;
483;SDS011;228;48.922;12.198;2023-03-17T17:04:25;4.37;;;3.33;;
483;SDS011;228;48.922;12.198;2023-03-17T17:06:51;3.60;;;3.03;;
483;SDS011;228;48.922;12.198;2023-03-17T17:09:18;3.80;;;3.07;;
483;SDS011;228;48.922;12.198;2023-03-17T17:11:44;5.90;;;4.27;;
483;SDS011;228;48.922;12.198;2023-03-17T17:14:10;5.33;;;4.10;;
483;SDS011;228;48.922;12.198;2023-03-17T17:16:37;9.03;;;4.77;;
483;SDS011;228;48.922;12.198;2023-03-17T17:19:11;6.17;;;4.30;;
483;SDS011;228;48.922;12.198;2023-03-17T17:21:41;9.33;;;5.17;;
483;SDS011;228;48.922;12.198;2023-03-17T17:24:09;8.77;;;5.77;;
483;SDS011;228;48.922;12.198;2023-03-17T17:26:40;10.27;;;5.33;;
483;SDS011;228;48.922;12.198;2023-03-17T17:29:06;12.37;;;7.23;;
483;SDS011;228;48.922;12.198;2023-03-17T17:31:32;10.27;;;7.37;;